createdAt,value
2023-01-17T00:07:10.356Z,2.00
2023-01-17T00:27:10.350Z,1.93
2023-01-17T00:47:10.386Z,1.89
2023-01-17T01:07:10.335Z,1.91
2023-01-17T01:27:10.432Z,1.85
2023-01-17T01:47:10.328Z,1.76
2023-01-17T02:07:10.331Z,1.70
2023-01-17T02:27:10.332Z,1.63
2023-01-17T02:47:10.305Z,1.50
2023-01-17T03:07:10.315Z,1.42
2023-01-17T03:27:10.301Z,1.38
2023-01-17T03:47:10.306Z,1.28
2023-01-17T04:07:10.298Z,1.21
2023-01-17T04:27:10.311Z,1.12
2023-01-17T04:47:10.289Z,1.05
2023-01-17T05:07:10.289Z,0.99
2023-01-17T05:27:10.292Z,1.01
2023-01-17T05:47:10.279Z,1.06
2023-01-17T06:07:10.283Z,1.11
2023-01-17T06:27:10.281Z,1.21
2023-01-17T06:47:10.324Z,1.01
2023-01-17T07:07:10.259Z,1.14
2023-01-17T07:27:10.263Z,1.12
2023-01-17T07:47:10.257Z,1.13
2023-01-17T08:07:10.398Z,1.21
2023-01-17T08:27:10.325Z,1.35
2023-01-17T08:47:10.303Z,1.55
2023-01-17T09:07:10.245Z,1.76
2023-01-17T09:27:10.233Z,2.12
2023-01-17T09:47:10.219Z,2.27
2023-01-17T10:07:10.212Z,2.62
2023-01-17T10:27:10.417Z,2.89
2023-01-17T10:47:10.267Z,3.11
2023-01-17T11:07:10.214Z,3.34
2023-01-17T11:27:10.208Z,3.30
2023-01-17T11:47:10.310Z,3.26
2023-01-17T12:07:10.268Z,3.36
2023-01-17T12:27:10.382Z,3.32
2023-01-17T12:47:10.271Z,3.32
2023-01-17T13:07:10.295Z,3.34
2023-01-17T13:27:10.181Z,3.33
2023-01-17T13:47:10.168Z,3.28
2023-01-17T14:07:10.235Z,3.41
2023-01-17T14:27:10.231Z,3.45
2023-01-17T14:47:10.116Z,3.13
2023-01-17T15:07:10.162Z,2.96
2023-01-17T15:27:10.109Z,2.83
2023-01-17T15:47:10.093Z,2.74
2023-01-17T16:07:10.085Z,2.56
2023-01-17T16:27:10.072Z,2.37
2023-01-17T16:47:10.086Z,2.41
2023-01-17T17:07:10.070Z,2.48
2023-01-17T17:27:10.197Z,2.56
2023-01-17T17:47:10.084Z,2.60
2023-01-17T18:07:10.074Z,2.60
2023-01-17T18:27:10.036Z,2.61
2023-01-17T18:47:10.028Z,2.62
2023-01-17T19:07:10.040Z,2.68
2023-01-17T19:27:10.028Z,2.74
2023-01-17T19:47:10.043Z,2.73
2023-01-17T20:07:10.009Z,2.74
2023-01-17T20:27:10.019Z,2.68
2023-01-17T20:47:09.987Z,2.59
2023-01-17T21:07:10.051Z,2.42
2023-01-17T21:27:09.979Z,2.33
2023-01-17T21:47:09.986Z,2.34
2023-01-17T22:07:09.958Z,2.19
2023-01-17T22:27:09.965Z,2.03
2023-01-17T22:47:09.975Z,1.94
2023-01-17T23:07:09.934Z,1.79
2023-01-17T23:27:09.938Z,1.98
2023-01-17T23:47:09.926Z,1.85
